Hastings Natural History Reservation, California Weather observations

Data are for 10 minute period ending at time listed.
 Day   Time   Solar   Ave.   Ave.  Ave.  Vector  Max.   Baro.   Total    
  of    of     Rad.   Air    Rel.  Wind   Wind   Wind  Press.  Precip.   
Year   Day            Temp.  Hum.  Speed  Dir.   Gust                    
2014   (PST)  Kw/m2    F      %     mph   deg.    mph    mb.     in.     
-------------------------------------------------------------------------
 294   14:30   0.57   68.8    34    2.5   265     8.6   952.2    0.00 
 294   14:40   0.55   68.7    34    3.6   250    11.3   952.0    0.00 
 294   14:50   0.55   69.0    33    2.1   252     7.5   952.0    0.00 
 294   15:00   0.53   69.8    33    2.8   280    11.4   952.0    0.00 
 294   15:10   0.50   69.5    35    3.5   282    10.4   951.9    0.00 
 294   15:20   0.47   68.6    38    2.6   274     8.3   952.0    0.00 
 294   15:30   0.46   69.2    38    2.8   279     9.1   952.2    0.00 
 294   15:40   0.41   68.2    39    3.9   268     9.5   952.1    0.00 
 294   15:50   0.39   68.2    38    3.9   264    11.8   952.2    0.00 
 294   16:00   0.36   66.5    41    4.7   266    12.2   952.2    0.00 
 294   16:10   0.33   67.0    41    3.7   274    11.1   952.4    0.00 
 294   16:20   0.27   66.5    42    3.0   282     9.1   952.5    0.00 
 294   16:30   0.28   65.3    45    4.6   247    13.0   952.4    0.00 
 294   16:40   0.23   64.9    46    4.0   259    10.7   952.4    0.00 
 294   16:50   0.16   65.2    46    2.6   265     7.2   952.3    0.00 
 294   17:00   0.22   63.8    48    5.2   244    12.6   952.3    0.00 
 294   17:10   0.13   63.6    50    3.1   265    10.5   952.4    0.00 
 294   17:20   0.18   62.0    56    4.7   252     9.3   952.5    0.00 
 294   17:30   0.15   61.1    59    5.1   249    11.8   952.5    0.00 
 294   17:40   0.12   60.5    60    4.1   250    11.5   952.6    0.00 
 294   17:50   0.09   60.0    61    3.2   248     8.0   952.7    0.00 
 294   18:00   0.07   59.2    62    2.0   259     5.4   952.8    0.00 
 294   18:10   0.01   58.4    64    1.1   284     3.1   952.8    0.00 
 294   18:20   0.00   57.4    66    1.0   341     3.7   952.8    0.00 
 294   18:30   0.00   56.6    68    1.1     7     4.2   952.9    0.00 
 294   18:40   0.00   56.1    69    2.0    12     4.7   953.1    0.00 
 294   18:50   0.00   55.7    70    0.2   320     1.3   953.2    0.00 
 294   19:00   0.00   54.7    71    0.5   247     1.6   953.2    0.00 
 294   19:10   0.00   53.7    73    0.0   243     0.7   953.3    0.00 
 294   19:20   0.00   52.9    75    0.6    43     1.5   953.3    0.00 
 294   19:30   0.00   51.9    76    0.0    76     1.1   953.4    0.00 
 294   19:40   0.00   51.0    78    0.4    51     1.6   953.4    0.00 
 294   19:50   0.00   50.3    78    1.2    47     1.8   953.6    0.00 
 294   20:00   0.00   49.7    78    0.3    75     1.1   953.7    0.00 
 294   20:10   0.00   49.0    79    0.8    46     2.0   953.7    0.00 
 294   20:20   0.00   48.6    80    0.7    60     1.8   953.8    0.00 
 294   20:30   0.00   48.1    80    1.1    57     2.5   953.9    0.00 
 294   20:40   0.00   47.7    81    0.8    70     2.3   954.0    0.00 
 294   20:50   0.00   47.2    81    0.5    76     1.5   954.0    0.00 
 294   21:00   0.00   47.1    81    0.2    57     2.0   953.8    0.00 
 294   21:10   0.00   46.8    82    0.3    44     1.5   953.8    0.00 
 294   21:20   0.00   46.4    83    0.1   108     2.6   953.9    0.00 
 294   21:30   0.00   45.9    83    0.2    80     3.1   953.9    0.00 
 294   21:40   0.00   45.6    84    0.8   115     3.0   953.9    0.00 
 294   21:50   0.00   45.3    83    0.5    74     2.2   953.9    0.00 
 294   22:00   0.00   45.1    83    0.2   226     1.0   953.9    0.00 
 294   22:10   0.00   45.2    84    0.3    42     2.0   954.0    0.00 
 294   22:20   0.00   44.9    84    0.4   241     1.5   954.1    0.00 
 294   22:30   0.00   44.6    84    0.2    40     1.4   954.2    0.00 
 294   22:40   0.00   44.4    86    0.5    50     1.7   954.2    0.00 
 294   22:50   0.00   44.3    85    0.3    40     1.6   954.2    0.00 
 294   23:00   0.00   44.3    86    0.7    53     1.5   954.1    0.00 
 294   23:10   0.00   44.9    86    0.7    72     2.4   954.0    0.00 
 294   23:20   0.00   45.7    85    1.2   108     4.7   953.9    0.00 
 294   23:30   0.00   45.7    81    0.9   101     3.2   953.9    0.00 
 294   23:40   0.00   44.5    83    0.6    87     1.8   953.9    0.00 
 294   23:50   0.00   44.4    84    0.3    61     1.7   953.9    0.00 
 295    0:00   0.00   43.5    85    0.1   182     0.9   953.9    0.00 
 295    0:10   0.00   43.1    86    0.2   248     0.9   953.5    0.00 
 295    0:20   0.00   43.3    88    0.1    16     0.7   953.4    0.00 
 295    0:30   0.00   43.3    88    0.1   236     1.1   953.5    0.00 
 295    0:40   0.00   42.9    88    0.1    16     0.7   953.5    0.00 
 295    0:50   0.00   42.9    89    0.2   240     1.1   953.6    0.00 
 295    1:00   0.00   42.7    89    0.3    41     1.1   953.5    0.00 
 295    1:10   0.00   42.6    89    0.6    56     1.8   953.7    0.00 
 295    1:20   0.00   42.4    89    0.0    67     0.7   953.5    0.00 
 295    1:30   0.00   42.2    89    0.2   211     1.4   953.4    0.00 
 295    1:40   0.00   41.9    89    0.3    71     1.8   953.4    0.00 
 295    1:50   0.00   41.9    89    0.1    90     1.1   953.4    0.00 
 295    2:00   0.00   41.7    89    0.0   231     0.6   953.4    0.00 
 295    2:10   0.00   41.6    90    0.2   253     1.1   953.4    0.00 
 295    2:20   0.00   41.7    90    0.2    36     0.9   953.4    0.00 
 295    2:30   0.00   41.8    89    0.0    68     0.7   953.4    0.00 
 295    2:40   0.00   41.6    89    0.0    46     0.7   953.4    0.00 
 295    2:50   0.00   41.6    90    0.1   259     0.5   953.3    0.00 
 295    3:00   0.00   41.2    90    0.0    36     0.7   953.4    0.00 
 295    3:10   0.00   41.7    90    0.5   208     1.9   953.4    0.00 
 295    3:20   0.00   41.2    88    0.4   241     1.5   953.3    0.00 
 295    3:30   0.00   41.0    89    0.0   222     0.6   953.2    0.00 
 295    3:40   0.00   41.1    89    0.0   205     0.5   953.2    0.00 
 295    3:50   0.00   41.1    89    0.0    55     0.6   953.3    0.00 
 295    4:00   0.00   41.0    89    0.1    42     1.2   953.3    0.00 
 295    4:10   0.00   41.0    89    0.2    36     1.2   953.3    0.00 
 295    4:20   0.00   40.9    88    0.5    54     1.8   953.3    0.00 
 295    4:30   0.00   41.0    87    0.2    71     0.8   953.2    0.00 
 295    4:40   0.00   41.0    87    0.3    44     1.0   953.2    0.00 
 295    4:50   0.00   40.9    87    0.2    53     1.2   953.2    0.00 
 295    5:00   0.00   40.9    86    0.4    55     1.3   953.2    0.00 
 295    5:10   0.00   40.7    86    0.1   233     1.1   953.2    0.00 
 295    5:20   0.00   40.4    87    0.2    74     1.2   953.2    0.00 
 295    5:30   0.00   40.2    88    0.1   117     1.2   953.2    0.00 
 295    5:40   0.00   40.2    88    0.0    46     0.6   953.1    0.00 
 295    5:50   0.00   40.2    88    0.0     0     0.0   953.0    0.00 
 295    6:00   0.00   40.1    88    0.0   258     0.7   952.9    0.00 
 295    6:10   0.00   40.3    88    0.1    54     0.7   952.9    0.00 
 295    6:20   0.00   40.6    87    0.3    58     1.5   953.0    0.00 
 295    6:30   0.00   40.8    86    0.0     0     0.0   953.0    0.00 
 295    6:40   0.00   40.7    85    0.1    78     1.0   953.0    0.00 
 295    6:50   0.00   40.8    85    0.3   237     1.4   953.0    0.00 
 295    7:00   0.00   40.6    86    0.1   265     0.8   953.0    0.00 
 295    7:10   0.00   40.8    86    0.0     0     0.0   953.1    0.00 
 295    7:20   0.00   41.0    86    0.4    44     1.2   953.2    0.00 
 295    7:30   0.00   41.4    84    0.7    42     2.0   953.3    0.00 
 295    7:40   0.00   41.9    81    0.3    91     1.2   953.2    0.00 
 295    7:50   0.00   41.7    80    0.2    53     1.0   953.2    0.00 
 295    8:00   0.00   41.5    81    0.1    76     1.0   953.3    0.00 
 295    8:10   0.01   41.3    81    0.1   265     0.9   953.4    0.00 
 295    8:20   0.02   41.8    79    0.3    49     1.4   953.5    0.00 
 295    8:30   0.03   42.6    75    0.3    59     1.1   953.6    0.00 
 295    8:40   0.03   43.5    72    0.5    50     2.6   953.8    0.00 
 295    8:50   0.04   44.8    69    0.3    40     1.7   953.7    0.00 
 295    9:00   0.05   46.4    65    0.0    52     0.5   953.9    0.00 
 295    9:10   0.05   48.1    61    0.2   192     0.8   954.0    0.00 
 295    9:20   0.05   49.7    59    0.2   216     0.9   954.1    0.00 
 295    9:30   0.04   52.0    54    0.7    66     1.2   954.1    0.00 
 295    9:40   0.04   53.7    48    0.9    65     1.3   954.2    0.00 
 295    9:50   0.03   55.5    43    0.9    60     1.3   954.2    0.00 
 295   10:00   0.04   57.3    41    0.2    74     0.8   954.3    0.00 
 295   10:10   0.03   59.5    38    0.0   210     0.5   954.4    0.00 
 295   10:20   0.03   60.9    35    0.1   220     0.7   954.4    0.00 
 295   10:30   0.03   62.5    31    0.5   215     2.1   954.5    0.00 
 295   10:40   0.09   64.1    30    1.2   263     4.9   954.5    0.00 
 295   10:50   0.09   65.3    25    2.8   244     7.1   954.6    0.00 
 295   11:00   0.04   65.9    24    2.0   241     5.6   954.5    0.00 
 295   11:10   0.03   67.0    24    3.5   248     7.1   954.4    0.00 
 295   11:20   0.05   67.1    26    4.5   243    10.3   954.4    0.00 
 295   11:30   0.08   67.5    26    3.0   251     7.2   954.4    0.00 
 295   11:40   0.07   67.8    25    2.9   256     8.2   954.4    0.00 
 295   11:50   0.05   68.6    26    2.5   293     7.8   954.4    0.00 
 295   12:00   0.04   69.1    26    2.1   342     6.6   954.4    0.00 
 295   12:10   0.06   69.2    26    3.0   258     8.6   954.4    0.00 
 295   12:20   0.07   69.2    27    3.5   250     7.2   954.2    0.00 
 295   12:30   0.07   70.1    26    2.7   273     7.6   954.1    0.00 
 295   12:40   0.27   70.2    27    2.5   261     7.9   954.0    0.00 
 295   12:50   0.64   70.8    28    2.7   286     8.8   953.9    0.00 
 295   13:00   0.64   72.2    28    1.9   299     6.7   953.9    0.00 
 295   13:10   0.63   71.5    30    3.0   276     8.0   953.7    0.00 
 295   13:20   0.60   71.1    29    4.5   247     7.7   953.2    0.00 
 295   13:30   0.63   71.4    28    2.1   274     7.4   953.0    0.00 
 295   13:40   0.61   72.5    27    2.9   248     8.4   952.9    0.00 
 295   13:50   0.56   72.8    28    4.0   253     8.8   952.9    0.00 
 295   14:00   0.55   73.4    28    2.8   273     8.6   952.9    0.00 
 295   14:10   0.57   73.3    30    3.9   254    10.6   952.8    0.00 
 295   14:20   0.45   73.5    30    2.9   276     7.8   952.8    0.00 

Return to Hastings Natural History Reservation graphs page.


Western Regional Climate Center,wrcc@dri.edu